sensor_id;sensor_type;location;lat;lon;timestamp;P1;durP1;ratioP1;P2;durP2;ratioP2
20589;SDS011;10453;50.810;12.540;2022-07-10T00:02:44;9.32;;;1.88;;
20589;SDS011;10453;50.810;12.540;2022-07-10T00:07:03;4.05;;;1.55;;
20589;SDS011;10453;50.810;12.540;2022-07-10T00:11:20;10.43;;;2.05;;
20589;SDS011;10453;50.810;12.540;2022-07-10T00:15:38;10.00;;;2.15;;
20589;SDS011;10453;50.810;12.540;2022-07-10T00:19:56;5.45;;;1.50;;
20589;SDS011;10453;50.810;12.540;2022-07-10T00:24:13;5.88;;;1.70;;
20589;SDS011;10453;50.810;12.540;2022-07-10T00:28:30;10.05;;;1.67;;
20589;SDS011;10453;50.810;12.540;2022-07-10T00:32:48;6.70;;;1.65;;
20589;SDS011;10453;50.810;12.540;2022-07-10T00:37:05;6.15;;;1.90;;
20589;SDS011;10453;50.810;12.540;2022-07-10T00:41:22;7.03;;;1.65;;
20589;SDS011;10453;50.810;12.540;2022-07-10T00:45:39;6.13;;;1.70;;
20589;SDS011;10453;50.810;12.540;2022-07-10T00:49:57;9.75;;;1.83;;
20589;SDS011;10453;50.810;12.540;2022-07-10T00:54:14;5.47;;;1.60;;
20589;SDS011;10453;50.810;12.540;2022-07-10T00:58:33;5.87;;;1.77;;
20589;SDS011;10453;50.810;12.540;2022-07-10T01:02:52;5.47;;;1.73;;
20589;SDS011;10453;50.810;12.540;2022-07-10T01:07:10;7.00;;;1.88;;
20589;SDS011;10453;50.810;12.540;2022-07-10T01:11:27;5.60;;;1.55;;
20589;SDS011;10453;50.810;12.540;2022-07-10T01:15:45;8.90;;;1.58;;
20589;SDS011;10453;50.810;12.540;2022-07-10T01:20:05;5.85;;;1.65;;
20589;SDS011;10453;50.810;12.540;2022-07-10T01:24:23;8.02;;;1.98;;
20589;SDS011;10453;50.810;12.540;2022-07-10T01:28:41;4.68;;;1.48;;
20589;SDS011;10453;50.810;12.540;2022-07-10T01:32:59;6.72;;;1.67;;
20589;SDS011;10453;50.810;12.540;2022-07-10T01:37:16;9.07;;;1.60;;
20589;SDS011;10453;50.810;12.540;2022-07-10T01:41:33;7.20;;;1.88;;
20589;SDS011;10453;50.810;12.540;2022-07-10T01:45:51;6.45;;;1.58;;
20589;SDS011;10453;50.810;12.540;2022-07-10T01:50:08;11.07;;;2.45;;
20589;SDS011;10453;50.810;12.540;2022-07-10T01:54:27;8.23;;;2.08;;
20589;SDS011;10453;50.810;12.540;2022-07-10T01:58:44;7.35;;;1.67;;
20589;SDS011;10453;50.810;12.540;2022-07-10T02:03:01;7.88;;;1.48;;
20589;SDS011;10453;50.810;12.540;2022-07-10T02:07:37;8.45;;;1.48;;
20589;SDS011;10453;50.810;12.540;2022-07-10T02:11:54;8.82;;;1.83;;
20589;SDS011;10453;50.810;12.540;2022-07-10T02:16:12;7.97;;;1.60;;
20589;SDS011;10453;50.810;12.540;2022-07-10T02:20:30;9.98;;;2.17;;
20589;SDS011;10453;50.810;12.540;2022-07-10T02:24:49;8.77;;;1.80;;
20589;SDS011;10453;50.810;12.540;2022-07-10T02:29:06;8.00;;;2.97;;
20589;SDS011;10453;50.810;12.540;2022-07-10T02:33:23;7.18;;;1.52;;
20589;SDS011;10453;50.810;12.540;2022-07-10T02:37:41;8.27;;;1.60;;
20589;SDS011;10453;50.810;12.540;2022-07-10T02:41:58;6.38;;;1.75;;
20589;SDS011;10453;50.810;12.540;2022-07-10T02:46:16;9.07;;;1.80;;
20589;SDS011;10453;50.810;12.540;2022-07-10T02:50:33;6.25;;;1.90;;
20589;SDS011;10453;50.810;12.540;2022-07-10T02:54:50;9.07;;;1.73;;
20589;SDS011;10453;50.810;12.540;2022-07-10T02:59:08;8.15;;;1.67;;
20589;SDS011;10453;50.810;12.540;2022-07-10T03:03:26;6.93;;;1.67;;
20589;SDS011;10453;50.810;12.540;2022-07-10T03:07:43;8.57;;;1.92;;
20589;SDS011;10453;50.810;12.540;2022-07-10T03:12:00;8.60;;;1.70;;
20589;SDS011;10453;50.810;12.540;2022-07-10T03:16:17;4.72;;;1.63;;
20589;SDS011;10453;50.810;12.540;2022-07-10T03:20:35;8.35;;;1.55;;
20589;SDS011;10453;50.810;12.540;2022-07-10T03:24:52;9.95;;;1.90;;
20589;SDS011;10453;50.810;12.540;2022-07-10T03:29:09;12.68;;;1.75;;
20589;SDS011;10453;50.810;12.540;2022-07-10T03:33:27;7.68;;;1.67;;
20589;SDS011;10453;50.810;12.540;2022-07-10T03:37:45;10.25;;;1.50;;
20589;SDS011;10453;50.810;12.540;2022-07-10T03:42:02;7.10;;;1.58;;
20589;SDS011;10453;50.810;12.540;2022-07-10T03:46:19;8.00;;;1.65;;
20589;SDS011;10453;50.810;12.540;2022-07-10T03:50:37;4.15;;;1.70;;
20589;SDS011;10453;50.810;12.540;2022-07-10T03:54:54;7.28;;;1.52;;
20589;SDS011;10453;50.810;12.540;2022-07-10T03:59:12;6.85;;;1.48;;
20589;SDS011;10453;50.810;12.540;2022-07-10T04:03:29;7.63;;;1.65;;
20589;SDS011;10453;50.810;12.540;2022-07-10T04:07:46;8.25;;;1.85;;
20589;SDS011;10453;50.810;12.540;2022-07-10T04:12:03;4.90;;;1.33;;
20589;SDS011;10453;50.810;12.540;2022-07-10T04:16:21;8.38;;;1.73;;
20589;SDS011;10453;50.810;12.540;2022-07-10T04:20:38;6.22;;;1.65;;
20589;SDS011;10453;50.810;12.540;2022-07-10T04:24:55;6.45;;;1.40;;
20589;SDS011;10453;50.810;12.540;2022-07-10T04:29:13;10.38;;;1.40;;
20589;SDS011;10453;50.810;12.540;2022-07-10T04:33:30;7.57;;;1.40;;
20589;SDS011;10453;50.810;12.540;2022-07-10T04:37:47;7.47;;;1.40;;
20589;SDS011;10453;50.810;12.540;2022-07-10T04:42:05;7.15;;;1.70;;
20589;SDS011;10453;50.810;12.540;2022-07-10T04:46:22;5.77;;;1.30;;
20589;SDS011;10453;50.810;12.540;2022-07-10T04:50:40;5.28;;;1.00;;
20589;SDS011;10453;50.810;12.540;2022-07-10T04:54:57;6.60;;;1.63;;
20589;SDS011;10453;50.810;12.540;2022-07-10T04:59:14;10.27;;;1.20;;
20589;SDS011;10453;50.810;12.540;2022-07-10T05:03:32;7.30;;;1.30;;
20589;SDS011;10453;50.810;12.540;2022-07-10T05:07:49;9.68;;;1.65;;
20589;SDS011;10453;50.810;12.540;2022-07-10T05:12:08;7.95;;;1.30;;
20589;SDS011;10453;50.810;12.540;2022-07-10T05:16:25;6.75;;;1.40;;
20589;SDS011;10453;50.810;12.540;2022-07-10T05:20:42;4.80;;;1.25;;
20589;SDS011;10453;50.810;12.540;2022-07-10T05:25:02;10.20;;;1.92;;
20589;SDS011;10453;50.810;12.540;2022-07-10T05:29:20;5.68;;;1.30;;
20589;SDS011;10453;50.810;12.540;2022-07-10T05:33:37;7.47;;;1.20;;
20589;SDS011;10453;50.810;12.540;2022-07-10T05:37:57;8.35;;;1.50;;
20589;SDS011;10453;50.810;12.540;2022-07-10T05:42:14;7.70;;;1.08;;
20589;SDS011;10453;50.810;12.540;2022-07-10T05:46:31;5.22;;;1.42;;
20589;SDS011;10453;50.810;12.540;2022-07-10T05:50:48;4.93;;;1.30;;
20589;SDS011;10453;50.810;12.540;2022-07-10T05:55:06;4.57;;;1.23;;
20589;SDS011;10453;50.810;12.540;2022-07-10T05:59:24;5.95;;;1.30;;
20589;SDS011;10453;50.810;12.540;2022-07-10T06:03:41;7.43;;;1.70;;
20589;SDS011;10453;50.810;12.540;2022-07-10T06:07:59;6.70;;;1.42;;
20589;SDS011;10453;50.810;12.540;2022-07-10T06:12:16;10.35;;;2.20;;
20589;SDS011;10453;50.810;12.540;2022-07-10T06:16:33;10.55;;;2.50;;
20589;SDS011;10453;50.810;12.540;2022-07-10T06:20:51;9.00;;;2.10;;
20589;SDS011;10453;50.810;12.540;2022-07-10T06:25:08;6.03;;;2.00;;
20589;SDS011;10453;50.810;12.540;2022-07-10T06:29:26;12.77;;;2.50;;
20589;SDS011;10453;50.810;12.540;2022-07-10T06:33:43;5.82;;;2.17;;
20589;SDS011;10453;50.810;12.540;2022-07-10T06:38:00;8.68;;;3.08;;
20589;SDS011;10453;50.810;12.540;2022-07-10T06:42:18;8.13;;;2.53;;
20589;SDS011;10453;50.810;12.540;2022-07-10T06:46:36;6.53;;;1.75;;
20589;SDS011;10453;50.810;12.540;2022-07-10T06:50:53;5.35;;;1.75;;
20589;SDS011;10453;50.810;12.540;2022-07-10T06:55:11;5.78;;;1.60;;
20589;SDS011;10453;50.810;12.540;2022-07-10T06:59:29;5.93;;;1.70;;
20589;SDS011;10453;50.810;12.540;2022-07-10T07:03:47;5.13;;;1.40;;
20589;SDS011;10453;50.810;12.540;2022-07-10T07:08:05;8.88;;;1.58;;
20589;SDS011;10453;50.810;12.540;2022-07-10T07:12:23;6.07;;;1.30;;
20589;SDS011;10453;50.810;12.540;2022-07-10T07:16:40;4.35;;;1.38;;
20589;SDS011;10453;50.810;12.540;2022-07-10T07:21:14;3.83;;;1.00;;
20589;SDS011;10453;50.810;12.540;2022-07-10T07:25:49;5.07;;;1.25;;
20589;SDS011;10453;50.810;12.540;2022-07-10T07:30:08;3.63;;;1.30;;
20589;SDS011;10453;50.810;12.540;2022-07-10T07:34:27;8.75;;;1.52;;
20589;SDS011;10453;50.810;12.540;2022-07-10T07:38:45;5.43;;;1.10;;
20589;SDS011;10453;50.810;12.540;2022-07-10T07:43:03;4.25;;;1.50;;
20589;SDS011;10453;50.810;12.540;2022-07-10T07:47:20;5.40;;;1.00;;
20589;SDS011;10453;50.810;12.540;2022-07-10T07:51:38;4.03;;;1.10;;
20589;SDS011;10453;50.810;12.540;2022-07-10T07:55:55;4.53;;;1.50;;
20589;SDS011;10453;50.810;12.540;2022-07-10T08:00:14;3.40;;;0.95;;
20589;SDS011;10453;50.810;12.540;2022-07-10T08:04:36;4.85;;;1.50;;
20589;SDS011;10453;50.810;12.540;2022-07-10T08:08:55;4.63;;;1.50;;
20589;SDS011;10453;50.810;12.540;2022-07-10T08:13:12;5.30;;;1.20;;
20589;SDS011;10453;50.810;12.540;2022-07-10T08:17:30;4.40;;;1.15;;
20589;SDS011;10453;50.810;12.540;2022-07-10T08:21:47;2.03;;;0.98;;
20589;SDS011;10453;50.810;12.540;2022-07-10T08:26:04;3.47;;;1.10;;
20589;SDS011;10453;50.810;12.540;2022-07-10T08:30:22;3.80;;;1.00;;
20589;SDS011;10453;50.810;12.540;2022-07-10T08:34:39;4.22;;;0.88;;
20589;SDS011;10453;50.810;12.540;2022-07-10T08:38:56;2.75;;;0.80;;
20589;SDS011;10453;50.810;12.540;2022-07-10T08:43:16;3.78;;;0.90;;
20589;SDS011;10453;50.810;12.540;2022-07-10T08:47:34;2.83;;;1.00;;
20589;SDS011;10453;50.810;12.540;2022-07-10T08:51:57;4.32;;;1.40;;
20589;SDS011;10453;50.810;12.540;2022-07-10T08:56:18;3.85;;;1.30;;
20589;SDS011;10453;50.810;12.540;2022-07-10T09:00:35;3.83;;;1.05;;
20589;SDS011;10453;50.810;12.540;2022-07-10T09:04:52;5.18;;;1.20;;
20589;SDS011;10453;50.810;12.540;2022-07-10T09:09:13;5.20;;;0.95;;
20589;SDS011;10453;50.810;12.540;2022-07-10T09:13:48;3.75;;;0.88;;
20589;SDS011;10453;50.810;12.540;2022-07-10T09:18:29;3.95;;;0.93;;
20589;SDS011;10453;50.810;12.540;2022-07-10T09:22:48;3.72;;;0.90;;
20589;SDS011;10453;50.810;12.540;2022-07-10T09:27:05;7.43;;;1.30;;
20589;SDS011;10453;50.810;12.540;2022-07-10T09:31:23;4.20;;;1.10;;
20589;SDS011;10453;50.810;12.540;2022-07-10T09:40:32;5.40;;;1.27;;
20589;SDS011;10453;50.810;12.540;2022-07-10T09:44:50;6.75;;;1.20;;
20589;SDS011;10453;50.810;12.540;2022-07-10T09:49:11;3.72;;;1.30;;
20589;SDS011;10453;50.810;12.540;2022-07-10T09:53:30;3.55;;;1.00;;
20589;SDS011;10453;50.810;12.540;2022-07-10T10:02:09;4.22;;;0.95;;
20589;SDS011;10453;50.810;12.540;2022-07-10T10:06:28;3.50;;;0.90;;
20589;SDS011;10453;50.810;12.540;2022-07-10T10:10:48;3.67;;;1.13;;
20589;SDS011;10453;50.810;12.540;2022-07-10T10:15:06;6.13;;;1.20;;
20589;SDS011;10453;50.810;12.540;2022-07-10T10:19:27;3.72;;;1.08;;
20589;SDS011;10453;50.810;12.540;2022-07-10T10:28:25;5.90;;;1.23;;
20589;SDS011;10453;50.810;12.540;2022-07-10T10:32:43;2.67;;;1.00;;
20589;SDS011;10453;50.810;12.540;2022-07-10T10:37:01;3.77;;;1.30;;
20589;SDS011;10453;50.810;12.540;2022-07-10T10:41:22;4.82;;;1.33;;
20589;SDS011;10453;50.810;12.540;2022-07-10T10:45:46;5.68;;;1.00;;
20589;SDS011;10453;50.810;12.540;2022-07-10T10:50:04;3.58;;;1.13;;
20589;SDS011;10453;50.810;12.540;2022-07-10T10:54:22;4.95;;;1.20;;
20589;SDS011;10453;50.810;12.540;2022-07-10T10:58:41;5.15;;;1.15;;
20589;SDS011;10453;50.810;12.540;2022-07-10T11:03:12;6.45;;;1.20;;
20589;SDS011;10453;50.810;12.540;2022-07-10T11:12:09;3.78;;;1.20;;
20589;SDS011;10453;50.810;12.540;2022-07-10T11:16:29;4.10;;;1.45;;
20589;SDS011;10453;50.810;12.540;2022-07-10T11:20:49;3.30;;;1.13;;
20589;SDS011;10453;50.810;12.540;2022-07-10T11:29:41;4.40;;;1.20;;
20589;SDS011;10453;50.810;12.540;2022-07-10T11:34:03;7.05;;;1.20;;
20589;SDS011;10453;50.810;12.540;2022-07-10T11:38:24;4.80;;;1.15;;
20589;SDS011;10453;50.810;12.540;2022-07-10T11:42:52;4.90;;;1.55;;
20589;SDS011;10453;50.810;12.540;2022-07-10T11:47:11;6.18;;;1.55;;
20589;SDS011;10453;50.810;12.540;2022-07-10T11:51:30;6.15;;;1.38;;
20589;SDS011;10453;50.810;12.540;2022-07-10T11:55:49;3.88;;;1.30;;
20589;SDS011;10453;50.810;12.540;2022-07-10T12:00:22;3.20;;;1.02;;
20589;SDS011;10453;50.810;12.540;2022-07-10T12:04:43;4.72;;;1.20;;
20589;SDS011;10453;50.810;12.540;2022-07-10T12:09:01;3.90;;;1.23;;
20589;SDS011;10453;50.810;12.540;2022-07-10T12:13:29;4.93;;;0.93;;
20589;SDS011;10453;50.810;12.540;2022-07-10T12:17:50;5.20;;;1.30;;
20589;SDS011;10453;50.810;12.540;2022-07-10T12:22:08;3.17;;;1.17;;
20589;SDS011;10453;50.810;12.540;2022-07-10T12:26:40;3.72;;;1.00;;
20589;SDS011;10453;50.810;12.540;2022-07-10T12:31:01;4.72;;;1.50;;
20589;SDS011;10453;50.810;12.540;2022-07-10T12:35:19;7.45;;;1.27;;
20589;SDS011;10453;50.810;12.540;2022-07-10T12:39:45;4.47;;;1.25;;
20589;SDS011;10453;50.810;12.540;2022-07-10T12:44:04;4.38;;;1.10;;
20589;SDS011;10453;50.810;12.540;2022-07-10T12:48:22;3.33;;;1.13;;
20589;SDS011;10453;50.810;12.540;2022-07-10T12:52:40;3.67;;;1.30;;
20589;SDS011;10453;50.810;12.540;2022-07-10T12:56:58;5.78;;;1.42;;
20589;SDS011;10453;50.810;12.540;2022-07-10T13:01:17;4.57;;;1.02;;
20589;SDS011;10453;50.810;12.540;2022-07-10T13:09:52;4.90;;;1.38;;
20589;SDS011;10453;50.810;12.540;2022-07-10T13:14:10;11.23;;;1.50;;
20589;SDS011;10453;50.810;12.540;2022-07-10T13:18:28;5.63;;;1.13;;
20589;SDS011;10453;50.810;12.540;2022-07-10T13:22:47;3.13;;;1.20;;
20589;SDS011;10453;50.810;12.540;2022-07-10T13:27:05;7.00;;;1.40;;
20589;SDS011;10453;50.810;12.540;2022-07-10T13:31:22;3.75;;;1.17;;
20589;SDS011;10453;50.810;12.540;2022-07-10T13:35:40;3.50;;;1.38;;
20589;SDS011;10453;50.810;12.540;2022-07-10T13:39:58;4.70;;;1.45;;
20589;SDS011;10453;50.810;12.540;2022-07-10T13:44:15;8.18;;;1.98;;
20589;SDS011;10453;50.810;12.540;2022-07-10T13:48:32;6.07;;;1.33;;
20589;SDS011;10453;50.810;12.540;2022-07-10T13:52:50;3.47;;;1.13;;
20589;SDS011;10453;50.810;12.540;2022-07-10T13:57:08;6.43;;;1.40;;
20589;SDS011;10453;50.810;12.540;2022-07-10T14:01:25;5.22;;;1.38;;
20589;SDS011;10453;50.810;12.540;2022-07-10T14:05:42;5.35;;;1.30;;
20589;SDS011;10453;50.810;12.540;2022-07-10T14:09:59;6.38;;;1.30;;
20589;SDS011;10453;50.810;12.540;2022-07-10T14:18:35;4.20;;;1.30;;
20589;SDS011;10453;50.810;12.540;2022-07-10T14:22:59;3.60;;;1.33;;
20589;SDS011;10453;50.810;12.540;2022-07-10T14:27:17;7.18;;;1.17;;
20589;SDS011;10453;50.810;12.540;2022-07-10T14:31:34;6.05;;;1.40;;
20589;SDS011;10453;50.810;12.540;2022-07-10T14:35:51;4.65;;;0.88;;
20589;SDS011;10453;50.810;12.540;2022-07-10T14:40:09;6.82;;;1.33;;
20589;SDS011;10453;50.810;12.540;2022-07-10T14:44:27;3.63;;;1.48;;
20589;SDS011;10453;50.810;12.540;2022-07-10T14:48:45;5.87;;;1.40;;
20589;SDS011;10453;50.810;12.540;2022-07-10T14:53:05;4.43;;;1.30;;
20589;SDS011;10453;50.810;12.540;2022-07-10T15:01:41;6.68;;;1.48;;
20589;SDS011;10453;50.810;12.540;2022-07-10T15:05:59;4.57;;;1.40;;
20589;SDS011;10453;50.810;12.540;2022-07-10T15:10:16;4.25;;;1.10;;
20589;SDS011;10453;50.810;12.540;2022-07-10T15:14:37;5.10;;;1.23;;
20589;SDS011;10453;50.810;12.540;2022-07-10T15:18:54;5.88;;;1.30;;
20589;SDS011;10453;50.810;12.540;2022-07-10T15:23:12;4.07;;;1.27;;
20589;SDS011;10453;50.810;12.540;2022-07-10T15:27:29;5.28;;;1.10;;
20589;SDS011;10453;50.810;12.540;2022-07-10T15:31:48;3.40;;;1.30;;
20589;SDS011;10453;50.810;12.540;2022-07-10T15:36:05;5.32;;;1.13;;
20589;SDS011;10453;50.810;12.540;2022-07-10T15:40:28;8.13;;;1.58;;
20589;SDS011;10453;50.810;12.540;2022-07-10T15:44:46;5.93;;;1.35;;
20589;SDS011;10453;50.810;12.540;2022-07-10T15:49:04;4.60;;;1.38;;
20589;SDS011;10453;50.810;12.540;2022-07-10T15:53:22;4.05;;;1.27;;
20589;SDS011;10453;50.810;12.540;2022-07-10T15:57:40;3.72;;;1.17;;
20589;SDS011;10453;50.810;12.540;2022-07-10T16:01:57;4.88;;;1.10;;
20589;SDS011;10453;50.810;12.540;2022-07-10T16:06:15;8.07;;;1.45;;
20589;SDS011;10453;50.810;12.540;2022-07-10T16:10:32;5.07;;;1.08;;
20589;SDS011;10453;50.810;12.540;2022-07-10T16:14:50;5.35;;;1.20;;
20589;SDS011;10453;50.810;12.540;2022-07-10T16:19:07;5.85;;;1.15;;
20589;SDS011;10453;50.810;12.540;2022-07-10T16:23:25;3.30;;;1.00;;
20589;SDS011;10453;50.810;12.540;2022-07-10T16:27:43;5.07;;;1.30;;
20589;SDS011;10453;50.810;12.540;2022-07-10T16:32:01;5.75;;;1.42;;
20589;SDS011;10453;50.810;12.540;2022-07-10T16:36:19;6.33;;;1.30;;
20589;SDS011;10453;50.810;12.540;2022-07-10T16:40:41;8.02;;;1.52;;
20589;SDS011;10453;50.810;12.540;2022-07-10T16:45:03;6.63;;;2.00;;
20589;SDS011;10453;50.810;12.540;2022-07-10T16:49:21;4.43;;;1.45;;
20589;SDS011;10453;50.810;12.540;2022-07-10T16:53:39;4.83;;;1.40;;
20589;SDS011;10453;50.810;12.540;2022-07-10T16:58:18;3.88;;;1.20;;
20589;SDS011;10453;50.810;12.540;2022-07-10T17:02:36;4.55;;;1.35;;
20589;SDS011;10453;50.810;12.540;2022-07-10T17:06:53;5.53;;;1.38;;
20589;SDS011;10453;50.810;12.540;2022-07-10T17:11:10;3.90;;;1.20;;
20589;SDS011;10453;50.810;12.540;2022-07-10T17:15:30;3.53;;;1.02;;
20589;SDS011;10453;50.810;12.540;2022-07-10T17:19:48;6.15;;;1.67;;
20589;SDS011;10453;50.810;12.540;2022-07-10T17:24:07;6.97;;;1.33;;
20589;SDS011;10453;50.810;12.540;2022-07-10T17:28:24;5.13;;;0.95;;
20589;SDS011;10453;50.810;12.540;2022-07-10T17:32:42;5.38;;;1.48;;
20589;SDS011;10453;50.810;12.540;2022-07-10T17:37:00;4.82;;;1.00;;
20589;SDS011;10453;50.810;12.540;2022-07-10T17:41:17;5.80;;;1.20;;
20589;SDS011;10453;50.810;12.540;2022-07-10T17:45:35;6.80;;;1.50;;
20589;SDS011;10453;50.810;12.540;2022-07-10T17:49:53;6.40;;;1.67;;
20589;SDS011;10453;50.810;12.540;2022-07-10T17:54:13;6.22;;;1.38;;
20589;SDS011;10453;50.810;12.540;2022-07-10T17:58:31;4.22;;;1.20;;
20589;SDS011;10453;50.810;12.540;2022-07-10T18:02:48;5.72;;;1.10;;
20589;SDS011;10453;50.810;12.540;2022-07-10T18:07:05;5.65;;;1.30;;
20589;SDS011;10453;50.810;12.540;2022-07-10T18:11:24;6.33;;;1.20;;
20589;SDS011;10453;50.810;12.540;2022-07-10T18:15:42;7.40;;;1.48;;
20589;SDS011;10453;50.810;12.540;2022-07-10T18:19:59;5.18;;;1.00;;
20589;SDS011;10453;50.810;12.540;2022-07-10T18:24:17;10.95;;;1.65;;
20589;SDS011;10453;50.810;12.540;2022-07-10T18:28:37;6.18;;;1.42;;
20589;SDS011;10453;50.810;12.540;2022-07-10T18:32:58;4.07;;;1.02;;
20589;SDS011;10453;50.810;12.540;2022-07-10T18:37:34;4.65;;;1.30;;
20589;SDS011;10453;50.810;12.540;2022-07-10T18:41:51;8.77;;;1.30;;
20589;SDS011;10453;50.810;12.540;2022-07-10T18:46:08;2.15;;;0.82;;
20589;SDS011;10453;50.810;12.540;2022-07-10T18:50:26;4.97;;;1.33;;
20589;SDS011;10453;50.810;12.540;2022-07-10T18:54:43;5.63;;;1.10;;
20589;SDS011;10453;50.810;12.540;2022-07-10T18:59:01;4.30;;;1.20;;
20589;SDS011;10453;50.810;12.540;2022-07-10T19:03:19;2.95;;;1.27;;
20589;SDS011;10453;50.810;12.540;2022-07-10T19:07:36;5.97;;;1.20;;
20589;SDS011;10453;50.810;12.540;2022-07-10T19:11:53;6.10;;;1.48;;
20589;SDS011;10453;50.810;12.540;2022-07-10T19:16:12;5.03;;;1.10;;
20589;SDS011;10453;50.810;12.540;2022-07-10T19:20:30;3.97;;;0.98;;
20589;SDS011;10453;50.810;12.540;2022-07-10T19:24:47;4.00;;;1.00;;
20589;SDS011;10453;50.810;12.540;2022-07-10T19:29:05;1.95;;;1.00;;
20589;SDS011;10453;50.810;12.540;2022-07-10T19:33:23;3.97;;;0.90;;
20589;SDS011;10453;50.810;12.540;2022-07-10T19:37:42;6.67;;;1.07;;
20589;SDS011;10453;50.810;12.540;2022-07-10T19:41:59;5.45;;;1.52;;
20589;SDS011;10453;50.810;12.540;2022-07-10T19:46:17;5.57;;;2.15;;
20589;SDS011;10453;50.810;12.540;2022-07-10T19:50:35;6.57;;;1.70;;
20589;SDS011;10453;50.810;12.540;2022-07-10T19:54:53;3.03;;;1.48;;
20589;SDS011;10453;50.810;12.540;2022-07-10T19:59:10;6.35;;;1.13;;
20589;SDS011;10453;50.810;12.540;2022-07-10T20:03:29;5.43;;;1.20;;
20589;SDS011;10453;50.810;12.540;2022-07-10T20:07:47;3.05;;;1.08;;
20589;SDS011;10453;50.810;12.540;2022-07-10T20:12:05;2.83;;;1.38;;
20589;SDS011;10453;50.810;12.540;2022-07-10T20:16:22;3.47;;;1.40;;
20589;SDS011;10453;50.810;12.540;2022-07-10T20:20:40;3.60;;;1.17;;
20589;SDS011;10453;50.810;12.540;2022-07-10T20:24:57;5.13;;;1.30;;
20589;SDS011;10453;50.810;12.540;2022-07-10T20:29:14;4.97;;;1.30;;
20589;SDS011;10453;50.810;12.540;2022-07-10T20:33:32;3.90;;;1.30;;
20589;SDS011;10453;50.810;12.540;2022-07-10T20:37:49;3.90;;;1.40;;
20589;SDS011;10453;50.810;12.540;2022-07-10T20:42:07;5.00;;;1.67;;
20589;SDS011;10453;50.810;12.540;2022-07-10T20:46:25;4.57;;;1.67;;
20589;SDS011;10453;50.810;12.540;2022-07-10T20:50:42;4.72;;;1.55;;
20589;SDS011;10453;50.810;12.540;2022-07-10T20:55:00;4.85;;;1.70;;
20589;SDS011;10453;50.810;12.540;2022-07-10T20:59:39;3.53;;;1.60;;
20589;SDS011;10453;50.810;12.540;2022-07-10T21:03:57;6.35;;;1.80;;
20589;SDS011;10453;50.810;12.540;2022-07-10T21:08:16;4.63;;;1.83;;
20589;SDS011;10453;50.810;12.540;2022-07-10T21:12:35;4.70;;;1.73;;
20589;SDS011;10453;50.810;12.540;2022-07-10T21:16:54;2.57;;;1.60;;
20589;SDS011;10453;50.810;12.540;2022-07-10T21:21:11;3.58;;;1.90;;
20589;SDS011;10453;50.810;12.540;2022-07-10T21:25:29;7.05;;;1.70;;
20589;SDS011;10453;50.810;12.540;2022-07-10T21:29:47;6.43;;;2.03;;
20589;SDS011;10453;50.810;12.540;2022-07-10T21:34:05;4.80;;;1.90;;
20589;SDS011;10453;50.810;12.540;2022-07-10T21:38:23;6.18;;;1.50;;
20589;SDS011;10453;50.810;12.540;2022-07-10T21:42:40;5.22;;;1.80;;
20589;SDS011;10453;50.810;12.540;2022-07-10T21:46:57;5.70;;;1.80;;
20589;SDS011;10453;50.810;12.540;2022-07-10T21:51:15;4.10;;;1.90;;
20589;SDS011;10453;50.810;12.540;2022-07-10T21:55:32;3.80;;;1.73;;
20589;SDS011;10453;50.810;12.540;2022-07-10T21:59:50;4.47;;;1.60;;
20589;SDS011;10453;50.810;12.540;2022-07-10T22:04:08;5.90;;;1.73;;
20589;SDS011;10453;50.810;12.540;2022-07-10T22:08:26;3.25;;;1.90;;
20589;SDS011;10453;50.810;12.540;2022-07-10T22:12:43;2.20;;;1.60;;
20589;SDS011;10453;50.810;12.540;2022-07-10T22:17:01;3.60;;;1.60;;
20589;SDS011;10453;50.810;12.540;2022-07-10T22:21:26;5.47;;;2.25;;
20589;SDS011;10453;50.810;12.540;2022-07-10T22:25:43;4.53;;;1.90;;
20589;SDS011;10453;50.810;12.540;2022-07-10T22:30:01;3.10;;;2.00;;
20589;SDS011;10453;50.810;12.540;2022-07-10T22:34:19;2.97;;;1.73;;
20589;SDS011;10453;50.810;12.540;2022-07-10T22:38:36;4.55;;;2.10;;
20589;SDS011;10453;50.810;12.540;2022-07-10T22:42:54;3.10;;;2.07;;
20589;SDS011;10453;50.810;12.540;2022-07-10T22:47:19;3.35;;;2.00;;
20589;SDS011;10453;50.810;12.540;2022-07-10T22:51:36;5.47;;;2.28;;
20589;SDS011;10453;50.810;12.540;2022-07-10T22:55:53;5.47;;;2.45;;
20589;SDS011;10453;50.810;12.540;2022-07-10T23:00:11;2.25;;;1.85;;
20589;SDS011;10453;50.810;12.540;2022-07-10T23:04:29;3.17;;;1.83;;
20589;SDS011;10453;50.810;12.540;2022-07-10T23:08:46;3.13;;;2.08;;
20589;SDS011;10453;50.810;12.540;2022-07-10T23:13:04;3.10;;;2.20;;
20589;SDS011;10453;50.810;12.540;2022-07-10T23:17:22;5.38;;;2.30;;
20589;SDS011;10453;50.810;12.540;2022-07-10T23:21:39;4.28;;;2.25;;
20589;SDS011;10453;50.810;12.540;2022-07-10T23:25:56;3.67;;;2.30;;
20589;SDS011;10453;50.810;12.540;2022-07-10T23:30:13;2.20;;;1.85;;
20589;SDS011;10453;50.810;12.540;2022-07-10T23:34:31;3.47;;;1.70;;
20589;SDS011;10453;50.810;12.540;2022-07-10T23:38:48;5.88;;;2.00;;
20589;SDS011;10453;50.810;12.540;2022-07-10T23:43:05;2.40;;;1.80;;
20589;SDS011;10453;50.810;12.540;2022-07-10T23:47:23;5.88;;;2.08;;
20589;SDS011;10453;50.810;12.540;2022-07-10T23:51:40;6.60;;;1.98;;
20589;SDS011;10453;50.810;12.540;2022-07-10T23:55:57;3.47;;;2.03;;
